Time;durP1;ratioP1;P1;durP2;ratioP2;P2;SDS_P1;SDS_P2;PMS_P1;PMS_P2;Temp;Humidity;BMP_temperature;BMP_pressure;BME280_temperature;BME280_humidity;BME280_pressure;Samples;Min_cycle;Max_cycle;Signal;HPM_P1;HPM_P2
2022/06/04 00:00:12;;;;;;;;;;;;;;;24.39;65.64;99470.09;2043542;28;19902;-46
2022/06/04 00:01:12;;;;;;;;;;;;;;;24.37;65.52;99455.97;2044206;28;20119;-48
2022/06/04 00:02:12;;;;;;;;;;;;;;;24.37;65.35;99455.97;2043723;28;20038;-46
2022/06/04 00:03:13;;;;;;;;;;;;;;;24.37;65.68;99464.28;2049163;28;19964;-50
2022/06/04 00:04:14;;;;;;;;;;;;;;;24.36;65.57;99466.28;2052033;28;19914;-46
2022/06/04 00:05:16;;;;;;;;;;;;;;;24.36;65.68;99466.28;2042764;28;20596;-49
2022/06/04 00:06:16;;;;;;;;;;;;;;;24.37;65.52;99461.53;2050619;28;20303;-46
2022/06/04 00:07:17;;;;;;;;;;;;;;;24.37;65.55;99467.78;2052140;28;20667;-48
2022/06/04 00:08:17;;;;;;;;;;;;;;;24.37;65.63;99467.06;2043348;28;20651;-46
2022/06/04 00:09:27;;;;;;;;;;;;;;;24.37;65.56;99462.25;2044885;28;19914;-48
2022/06/04 00:15:50;;;;;;;;;;;;;;;24.36;66.32;99460.75;2043254;28;20917;-47
2022/06/04 00:16:50;;;;;;;;;;;;;;;24.37;66.15;99453.97;2042631;28;20304;-47
2022/06/04 00:17:51;;;;;;;;;;;;;;;24.36;66.10;99446.13;2044765;28;20001;-47
2022/06/04 00:18:52;;;;;;;;;;;;;;;24.36;66.18;99449.69;2043341;28;20017;-48
2022/06/04 00:19:52;;;;;;;;;;;;;;;24.36;66.20;99446.13;2043981;28;19914;-46
2022/06/04 00:20:53;;;;;;;;;;;;;;;24.34;66.22;99441.06;2043730;28;19957;-47
2022/06/04 00:21:53;;;;;;;;;;;;;;;24.34;66.11;99451.34;2043708;28;20017;-47
2022/06/04 00:22:58;;;;;;;;;;;;;;;24.33;66.32;99442.28;2044098;28;19917;-49
2022/06/04 00:23:58;;;;;;;;;;;;;;;24.33;66.27;99449.81;2045161;28;19917;-47
2022/06/04 00:24:58;;;;;;;;;;;;;;;24.33;66.37;99442.28;2043397;28;20332;-46
2022/06/04 00:25:59;;;;;;;;;;;;;;;24.33;66.20;99447.81;2043519;28;19924;-47
2022/06/04 00:27:00;;;;;;;;;;;;;;;24.31;66.29;99450.31;2043996;28;19910;-50
2022/06/04 00:28:01;;;;;;;;;;;;;;;24.32;66.30;99454.59;2043132;28;19910;-47
2022/06/04 00:29:05;;;;;;;;;;;;;;;24.31;66.14;99450.31;2044001;28;19907;-47
2022/06/04 00:30:05;;;;;;;;;;;;;;;24.32;66.28;99449.06;2043221;28;19921;-48
2022/06/04 00:31:06;;;;;;;;;;;;;;;24.32;66.06;99454.59;2043836;28;19914;-50
2022/06/04 00:32:06;;;;;;;;;;;;;;;24.32;66.24;99449.06;2046555;28;20128;-47
2022/06/04 00:33:07;;;;;;;;;;;;;;;24.31;66.29;99444.78;2043140;28;20586;-47
2022/06/04 00:34:08;;;;;;;;;;;;;;;24.31;66.16;99453.06;2043678;28;19906;-47
2022/06/04 00:35:09;;;;;;;;;;;;;;;24.30;66.46;99456.28;2041983;28;19910;-47
2022/06/04 00:36:09;;;;;;;;;;;;;;;24.28;66.37;99453.97;2043002;28;20832;-46
2022/06/04 00:37:10;;;;;;;;;;;;;;;24.29;66.35;99447.22;2043224;28;19921;-47
2022/06/04 00:38:11;;;;;;;;;;;;;;;24.29;66.28;99446.44;2044752;28;20498;-47
2022/06/04 00:39:12;;;;;;;;;;;;;;;24.29;66.19;99450.00;2041574;28;19914;-49
2022/06/04 00:40:14;;;;;;;;;;;;;;;24.29;66.23;99452.75;2043240;28;20431;-48
2022/06/04 00:41:14;;;;;;;;;;;;;;;24.28;66.38;99448.44;2043399;28;19918;-46
2022/06/04 00:42:17;;;;;;;;;;;;;;;24.29;66.48;99455.53;2038563;28;20236;-46
2022/06/04 00:43:18;;;;;;;;;;;;;;;24.28;66.28;99451.22;2042919;28;20037;-50
2022/06/04 00:44:19;;;;;;;;;;;;;;;24.27;66.55;99444.13;2042264;28;19914;-46
2022/06/04 00:45:32;;;;;;;;;;;;;;;24.28;66.26;99448.44;2044002;28;20232;-50
2022/06/04 00:46:41;;;;;;;;;;;;;;;24.29;66.43;99446.44;2040412;28;20402;-49
2022/06/04 00:47:41;;;;;;;;;;;;;;;24.27;66.55;99446.91;2042377;28;19914;-50
2022/06/04 00:48:42;;;;;;;;;;;;;;;24.27;66.31;99441.38;2045352;28;20544;-46
2022/06/04 00:49:42;;;;;;;11.43;3.72;;;;;;;24.25;66.07;99443.84;2041952;28;20043;-47
2022/06/04 00:50:43;;;;;;;10.05;3.28;;;;;;;24.27;66.54;99449.69;2042245;28;20145;-48
2022/06/04 00:51:48;;;;;;;9.82;3.33;;;;;;;24.26;66.52;99450.16;2043054;28;20120;-48
2022/06/04 00:52:50;;;;;;;;;;;;;;;24.27;66.17;99451.69;2040427;28;20034;-50
2022/06/04 00:53:50;;;;;;;;;;;;;;;24.25;66.53;99452.16;2045865;28;20723;-48
2022/06/04 00:54:52;;;;;;;;;;;;;;;24.24;66.68;99453.38;2044325;28;19980;-48
2022/06/04 00:55:52;;;;;;;;;;;;;;;24.25;66.47;99465.22;2048464;28;20355;-47
2022/06/04 00:57:07;;;;;;;;;;;;;;;24.25;66.72;99454.91;2052368;28;19991;-47
2022/06/04 00:58:13;;;;;;;;;;;;;;;24.24;66.70;99458.16;2044055;28;20031;-47
2022/06/04 00:59:14;;;;;;;;;;;;;;;24.24;66.49;99455.38;2043133;28;20069;-48
2022/06/04 01:00:17;;;;;;;;;;;;;;;24.23;66.91;99454.59;2044193;28;19930;-49
2022/06/04 01:01:21;;;;;;;9.20;2.90;;;;;;;24.23;67.00;99457.38;2037590;28;20076;-49
2022/06/04 01:02:27;;;;;;;;;;;;;;;24.23;67.24;99457.38;2041557;28;20378;-47
2022/06/04 01:03:44;;;;;;;;;;;;;;;24.23;67.01;99454.59;2044571;28;20245;-48
2022/06/04 01:04:47;;;;;;;;;;;;;;;24.22;66.95;99458.59;2036868;28;19914;-48
2022/06/04 01:06:06;;;;;;;;;;;;;;;24.22;66.86;99453.06;2043024;28;20041;-48
2022/06/04 01:07:16;;;;;;;;;;;;;;;24.21;66.58;99459.84;2042845;28;19914;-48
2022/06/04 01:08:31;;;;;;;;;;;;;;;24.21;66.81;99457.09;2044745;28;19914;-47
2022/06/04 01:09:40;;;;;;;;;;;;;;;24.21;66.94;99451.56;2049262;28;19940;-47
2022/06/04 01:10:43;;;;;;;;;;;;;;;24.20;66.93;99455.53;2048885;28;20535;-49
2022/06/04 01:12:09;;;;;;;;;;;;;;;24.21;66.98;99453.56;2044039;28;19913;-48
2022/06/04 01:13:28;;;;;;;;;;;;;;;24.20;66.71;99458.31;2035424;28;20311;-47
2022/06/04 01:14:39;;;;;;;;;;;;;;;24.20;66.76;99458.31;2043245;28;19918;-48
2022/06/04 01:15:48;;;;;;;;;;;;;;;24.21;66.62;99459.09;2043176;28;19910;-48
2022/06/04 01:16:48;;;;;;;;;;;;;;;24.20;66.81;99457.53;2042722;28;19908;-47
2022/06/04 01:17:48;;;;;;;;;;;;;;;24.20;66.61;99469.38;2043877;28;19921;-47
2022/06/04 01:18:58;;;;;;;;;;;;;;;24.19;67.04;99465.06;2044013;28;19918;-47
2022/06/04 01:19:58;;;;;;;;;;;;;;;24.20;66.90;99465.84;2037346;28;19922;-47
2022/06/04 01:21:05;;;;;;;;;;;;;;;24.19;66.88;99467.84;2043150;28;19962;-48
2022/06/04 01:22:11;;;;;;;;;;;;;;;24.18;66.99;99463.53;2040096;28;20220;-47
2022/06/04 01:23:17;;;;;;;;;;;;;;;24.18;67.16;99457.22;2045202;28;20340;-49
2022/06/04 01:24:29;;;;;;;;;;;;;;;24.17;67.14;99462.00;2042863;28;19912;-47
2022/06/04 01:25:40;;;;;;;;;;;;;;;24.17;67.00;99459.22;2043233;28;20392;-46
2022/06/04 01:26:43;;;;;;;;;;;;;;;24.16;66.98;99460.44;2044207;28;19917;-46
2022/06/04 01:27:45;;;;;;;;;;;;;;;24.16;66.90;99465.97;2042332;28;20787;-48
2022/06/04 01:28:57;;;;;;;;;;;;;;;24.16;66.62;99462.44;2042280;28;19926;-46
2022/06/04 01:30:06;;;;;;;;;;;;;;;24.15;66.94;99461.66;2047608;28;19928;-48
2022/06/04 01:31:08;;;;;;;;;;;;;;;24.16;66.93;99465.22;2047286;28;19961;-48
2022/06/04 01:32:11;;;;;;;;;;;;;;;24.16;66.98;99459.66;2048112;28;20549;-46
2022/06/04 01:33:13;;;;;;;;;;;;;;;24.16;67.07;99463.22;2042130;28;19916;-48
2022/06/04 01:34:17;;;;;;;;;;;;;;;24.15;66.92;99461.66;2043357;28;19914;-48
2022/06/04 01:35:17;;;;;;;;;;;;;;;24.14;66.75;99460.13;2043603;28;20885;-47
2022/06/04 01:36:21;;;;;;;;;;;;;;;24.14;66.66;99457.34;2042510;28;20036;-47
2022/06/04 01:37:32;;;;;;;;;;;;;;;24.14;66.60;99453.81;2044108;28;19921;-48
2022/06/04 01:38:35;;;;;;;;;;;;;;;24.13;66.85;99458.59;2042980;28;19914;-46
2022/06/04 01:41:04;;;;;;;;;;;;;;;24.13;66.51;99457.81;2043070;28;20009;-47
2022/06/04 01:42:05;;;;;;;;;;;;;;;24.14;67.10;99462.13;2039659;28;19914;-47
2022/06/04 01:43:08;;;;;;;;;;;;;;;24.13;67.00;99455.81;2043091;28;19906;-48
2022/06/04 01:44:10;;;;;;;;;;;;;;;24.14;66.92;99459.34;2043775;28;19914;-48
2022/06/04 01:45:14;;;;;;;;;;;;;;;24.13;67.12;99463.34;2045018;28;19934;-48
2022/06/04 01:46:17;;;;;;;;;;;;;;;24.13;67.44;99469.66;2040909;28;19914;-47
2022/06/04 01:47:18;;;;;;;;;;;;;;;24.14;67.34;99475.97;2037238;28;19942;-47
2022/06/04 01:48:20;;;;;;;;;;;;;;;24.12;67.18;99472.88;2042004;28;19925;-48
2022/06/04 01:49:33;;;;;;;;;;;;;;;24.11;67.28;99472.09;2043167;28;20231;-47
2022/06/04 01:50:45;;;;;;;;;;;;;;;24.11;67.53;99480.41;2040886;28;19926;-46
2022/06/04 01:51:47;;;;;;;;;;;;;;;24.10;67.46;99478.88;2053129;28;20540;-47
2022/06/04 01:52:48;;;;;;;;;;;;;;;24.09;67.09;99480.13;2048143;28;20028;-47
2022/06/04 01:53:52;;;;;;;;;;;;;;;24.09;67.42;99482.88;2042402;28;19914;-46
2022/06/04 01:54:55;;;;;;;;;;;;;;;24.09;67.69;99488.41;2043512;28;20391;-46
2022/06/04 01:55:56;;;;;;;;;;;;;;;24.10;67.84;99483.66;2043177;28;19910;-46
2022/06/04 01:57:08;;;;;;;8.98;3.08;;;;;;;24.10;67.58;99486.41;2043283;28;19906;-47
2022/06/04 01:58:11;;;;;;;;;;;;;;;24.08;67.94;99483.34;2044188;28;20042;-47
2022/06/04 01:59:17;;;;;;;;;;;;;;;24.08;67.93;99486.09;2041911;28;20013;-48
2022/06/04 02:00:23;;;;;;;;;;;;;;;24.08;67.91;99489.63;2044037;28;20106;-47
2022/06/04 02:01:27;;;;;;;;;;;;;;;24.08;67.86;99491.63;2039256;28;19914;-48
2022/06/04 02:02:37;;;;;;;;;;;;;;;24.08;67.93;99495.16;2041834;28;19914;-49
2022/06/04 02:03:43;;;;;;;;;;;;;;;24.07;67.76;99485.31;2041937;28;19914;-47
2022/06/04 02:04:47;;;;;;;;;;;;;;;24.07;67.93;99490.09;2045752;28;20452;-47
2022/06/04 02:05:55;;;;;;;;;;;;;;;24.07;68.06;99481.78;2040720;28;20280;-46
2022/06/04 02:08:23;;;;;;;;;;;;;;;24.06;67.94;99491.34;2043699;28;20297;-50
2022/06/04 02:09:24;;;;;;;;;;;;;;;24.06;67.55;99486.56;2040141;28;19995;-47
2022/06/04 02:10:27;;;;;;;;;;;;;;;24.07;67.24;99503.91;2043814;28;20001;-47
2022/06/04 02:11:29;;;;;;;;;;;;;;;24.04;67.06;99494.56;2050654;28;19914;-48
2022/06/04 02:12:33;;;;;;;;;;;;;;;24.04;66.89;99496.56;2049632;28;20256;-49
2022/06/04 02:13:34;;;;;;;;;;;;;;;24.04;67.45;99494.56;2048471;28;20016;-47
2022/06/04 02:14:35;;;;;;;;;;;;;;;24.03;67.12;99495.78;2049585;28;20131;-50
2022/06/04 02:15:38;;;;;;;;;;;;;;;24.03;67.01;99495.00;2043333;28;19914;-49
2022/06/04 02:16:41;;;;;;;;;;;;;;;24.03;67.23;99489.47;2041696;28;19914;-48
2022/06/04 02:17:44;;;;;;;;;;;;;;;24.02;67.23;99485.94;2040373;28;19937;-46
2022/06/04 02:18:44;;;;;;;;;;;;;;;24.03;67.45;99487.47;2043996;28;19929;-47
2022/06/04 02:19:45;;;;;;;;;;;;;;;24.03;67.81;99492.25;2043007;28;20298;-47
2022/06/04 02:20:45;;;;;;;;;;;;;;;24.02;68.05;99493.47;2044279;28;21230;-50
2022/06/04 02:21:46;;;;;;;7.90;3.50;;;;;;;24.03;67.73;99498.56;2042255;28;20830;-47
2022/06/04 02:22:46;;;;;;;;;;;;;;;24.01;67.95;99495.47;2042585;28;20230;-46
2022/06/04 02:23:47;;;;;;;;;;;;;;;24.02;68.11;99494.25;2044462;28;20296;-50
2022/06/04 02:24:47;;;;;;;;;;;;;;;24.00;68.16;99491.94;2042810;28;19968;-46
2022/06/04 02:25:48;;;;;;;;;;;;;;;24.01;68.03;99498.22;2043410;28;19918;-47
2022/06/04 02:26:48;;;;;;;;;;;;;;;23.99;68.06;99495.94;2042639;28;19914;-47
2022/06/04 02:27:51;;;;;;;7.35;2.90;;;;;;;24.00;67.87;99493.94;2041631;28;19913;-48
2022/06/04 02:28:52;;;;;;;;;;;;;;;23.99;67.78;99495.94;2044208;28;20317;-46
2022/06/04 02:29:52;;;;;;;;;;;;;;;23.99;67.25;99497.94;2042734;28;19925;-47
2022/06/04 02:31:05;;;;;;;;;;;;;;;23.98;67.01;99497.16;2044561;28;20384;-47
2022/06/04 02:32:21;;;;;;;;;;;;;;;23.97;66.89;99489.31;2044183;28;20018;-46
2022/06/04 02:33:32;;;;;;;;;;;;;;;23.97;66.96;99489.31;2042035;28;19953;-47
2022/06/04 02:34:45;;;;;;;;;;;;;;;23.96;67.13;99498.84;2042530;28;20740;-46
2022/06/04 02:35:53;;;;;;;;;;;;;;;23.96;66.97;99493.31;2044550;28;20479;-47
2022/06/04 02:36:55;;;;;;;;;;;;;;;23.96;67.32;99498.84;2043227;28;19910;-47
2022/06/04 02:37:56;;;;;;;;;;;;;;;23.95;67.52;99494.56;2041460;28;19976;-47
2022/06/04 02:39:10;;;;;;;;;;;;;;;23.97;67.72;99497.63;2044863;28;19918;-47
2022/06/04 02:40:16;;;;;;;;;;;;;;;23.94;67.00;99502.09;2041664;28;20009;-49
2022/06/04 02:41:22;;;;;;;;;;;;;;;23.95;67.45;99497.34;2044055;28;19945;-46
2022/06/04 02:42:25;;;;;;;;;;;;;;;23.94;67.47;99493.78;2043662;28;20599;-50
2022/06/04 02:43:32;;;;;;;;;;;;;;;23.95;67.39;99497.34;2042713;28;19914;-47
2022/06/04 02:44:36;;;;;;;;;;;;;;;23.95;67.69;99494.56;2045265;28;20006;-49
2022/06/04 02:45:42;;;;;;;;;;;;;;;23.95;67.71;99500.09;2043101;28;20265;-47
2022/06/04 02:46:46;;;;;;;;;;;;;;;23.95;67.74;99497.34;2042409;28;19957;-47
2022/06/04 02:47:46;;;;;;;;;;;;;;;23.93;67.67;99505.31;2044517;28;19914;-46
2022/06/04 02:48:51;;;;;;;;;;;;;;;23.92;67.31;99501.00;2042899;28;20341;-48
2022/06/04 02:49:58;;;;;;;;;;;;;;;23.94;67.27;99501.31;2042582;28;20221;-47
2022/06/04 02:51:00;;;;;;;;;;;;;;;23.93;67.43;99506.09;2044300;28;20532;-46
2022/06/04 02:52:00;;;;;;;;;;;;;;;23.93;67.45;99497.00;2041758;28;19918;-46
2022/06/04 02:53:01;;;;;;;;;;;;;;;23.92;67.41;99492.69;2046145;28;19949;-46
2022/06/04 02:54:12;;;;;;;;;;;;;;;23.91;67.82;99497.47;2045341;28;19910;-47
2022/06/04 02:55:16;;;;;;;;;;;;;;;23.91;67.70;99500.22;2043715;28;20460;-48
2022/06/04 02:56:20;;;;;;;;;;;;;;;23.90;67.33;99508.97;2045024;28;20428;-47
2022/06/04 02:57:21;;;;;;;;;;;;;;;23.91;67.53;99505.00;2042879;28;19962;-47
2022/06/04 02:58:22;;;;;;;;;;;;;;;23.90;67.53;99509.75;2042150;28;19944;-48
2022/06/04 02:59:23;;;;;;;;;;;;;;;23.90;68.33;99506.22;2045605;28;19910;-47
2022/06/04 03:00:25;;;;;;;;;;;;;;;23.89;68.25;99507.47;2045070;28;19914;-46
2022/06/04 03:01:25;;;;;;;;;;;;;;;23.89;67.92;99499.16;2043998;28;20273;-47
2022/06/04 03:02:29;;;;;;;;;;;;;;;23.90;67.82;99506.22;2046025;28;19920;-46
2022/06/04 03:03:29;;;;;;;;;;;;;;;23.89;67.95;99501.94;2041492;28;20408;-48
2022/06/04 03:04:39;;;;;;;;;;;;;;;23.89;67.91;99493.63;2044533;28;19914;-47
2022/06/04 03:05:49;;;;;;;;;;;;;;;23.88;68.29;99501.16;2045828;28;19925;-50
2022/06/04 03:06:49;;;;;;;;;;;;;;;23.88;68.14;99505.91;2042759;28;19914;-47
2022/06/04 03:07:51;;;;;;;;;;;;;;;23.87;68.09;99498.84;2043506;28;20428;-51
2022/06/04 03:08:52;;;;;;;;;;;;;;;23.88;68.29;99503.16;2045007;28;20371;-48
2022/06/04 03:09:56;;;;;;;;;;;;;;;23.87;68.23;99505.16;2042787;28;19914;-46
2022/06/04 03:10:57;;;;;;;;;;;;;;;23.87;68.11;99496.84;2043617;28;19913;-48
2022/06/04 03:11:57;;;;;;;;;;;;;;;23.87;68.40;99491.31;2044891;28;20310;-49
2022/06/04 03:12:58;;;;;;;;;;;;;;;23.86;68.32;99500.84;2042950;28;19922;-51
2022/06/04 03:13:58;;;;;;;;;;;;;;;23.86;68.21;99503.59;2044887;28;20689;-47
2022/06/04 03:14:58;;;;;;;;;;;;;;;23.86;68.09;99506.38;2044583;28;19945;-49
2022/06/04 03:15:59;;;;;;;;;;;;;;;23.86;68.20;99505.59;2043317;28;20312;-47
2022/06/04 03:16:59;;;;;;;7.25;2.85;;;;;;;23.86;68.29;99500.84;2045563;28;20648;-46
2022/06/04 03:17:59;;;;;;;;;;;;;;;23.85;68.21;99504.81;2043657;28;20426;-47
2022/06/04 03:18:59;;;;;;;;;;;;;;;23.85;67.93;99506.81;2043711;28;19918;-48
2022/06/04 03:20:00;;;;;;;10.70;3.27;;;;;;;23.86;68.21;99505.59;2045539;28;19910;-46
2022/06/04 03:21:01;;;;;;;;;;;;;;;23.85;68.37;99498.53;2043590;28;20015;-47
2022/06/04 03:22:01;;;;;;;;;;;;;;;23.85;68.27;99506.81;2050104;28;19907;-48
2022/06/04 03:23:01;;;;;;;;;;;;;;;23.85;67.98;99504.06;2044262;28;20305;-51
2022/06/04 03:24:02;;;;;;;;;;;;;;;23.84;67.89;99500.56;2043671;28;19913;-47
2022/06/04 03:25:03;;;;;;;;;;;;;;;23.84;68.01;99508.06;2044441;28;19910;-48
2022/06/04 03:26:03;;;;;;;;;;;;;;;23.84;67.97;99510.84;2042937;28;19918;-46
2022/06/04 03:27:04;;;;;;;;;;;;;;;23.84;68.01;99505.31;2044602;28;20009;-49
2022/06/04 03:28:05;;;;;;;;;;;;;;;23.83;67.87;99506.53;2044624;28;19925;-48
2022/06/04 03:29:05;;;;;;;;;;;;;;;23.83;67.87;99509.28;2043386;28;20334;-48
2022/06/04 03:30:06;;;;;;;;;;;;;;;23.83;67.94;99509.28;2046382;28;19945;-47
2022/06/04 03:31:06;;;;;;;;;;;;;;;23.82;68.07;99505.75;2044103;28;19914;-51
2022/06/04 03:32:07;;;;;;;;;;;;;;;23.83;68.12;99506.53;2043609;28;19914;-48
2022/06/04 03:33:08;;;;;;;;;;;;;;;23.82;68.25;99508.53;2045166;28;20351;-46
2022/06/04 03:34:08;;;;;;;7.47;2.60;;;;;;;23.82;68.38;99507.75;2042997;28;19913;-47
2022/06/04 03:35:10;;;;;;;10.50;3.20;;;;;;;23.82;68.37;99510.53;2045261;28;20290;-48
2022/06/04 03:36:11;;;;;;;;;;;;;;;23.81;68.46;99509.75;2044413;28;20460;-48
2022/06/04 03:37:11;;;;;;;;;;;;;;;23.81;68.14;99514.50;2043983;28;19921;-47
2022/06/04 03:38:12;;;;;;;11.77;2.90;;;;;;;23.81;68.57;99508.97;2043821;28;20296;-47
2022/06/04 03:39:12;;;;;;;;;;;;;;;23.82;68.51;99516.03;2043571;28;20708;-46
2022/06/04 03:40:13;;;;;;;;;;;;;;;23.80;68.15;99512.97;2045113;28;19914;-47
2022/06/04 03:41:14;;;;;;;;;;;;;;;23.80;68.21;99512.97;2045437;28;19913;-47
2022/06/04 03:42:14;;;;;;;;;;;;;;;23.80;68.39;99516.50;2041713;28;19921;-46
2022/06/04 03:43:14;;;;;;;;;;;;;;;23.79;68.50;99517.75;2043990;28;20333;-50
2022/06/04 03:44:14;;;;;;;;;;;;;;;23.78;68.51;99512.66;2045670;28;19969;-48
2022/06/04 03:45:15;;;;;;;;;;;;;;;23.79;68.59;99514.22;2043238;28;19914;-49
2022/06/04 03:46:15;;;;;;;;;;;;;;;23.79;68.60;99522.50;2046477;28;20708;-47
2022/06/04 03:47:16;;;;;;;;;;;;;;;23.77;68.52;99520.19;2044617;28;19968;-48
2022/06/04 03:48:17;;;;;;;;;;;;;;;23.78;68.46;99520.97;2042768;28;20155;-48
2022/06/04 03:49:17;;;;;;;;;;;;;;;23.77;68.56;99522.97;2045361;28;19924;-47
2022/06/04 03:50:17;;;;;;;;;;;;;;;23.78;68.54;99521.72;2041669;28;19924;-46
2022/06/04 03:51:17;;;;;;;;;;;;;;;23.77;68.47;99524.94;2046050;28;20433;-47
2022/06/04 03:52:18;;;;;;;;;;;;;;;23.77;68.56;99520.19;2042918;28;19907;-46
2022/06/04 03:53:18;;;;;;;;;;;;;;;23.77;68.62;99519.41;2042271;28;19910;-48
2022/06/04 03:54:52;;;;;;;;;;;;;;;23.77;68.36;99524.94;2044830;28;19916;-47
2022/06/04 03:55:39;;;;;;;;;;;;;;;23.77;68.53;99527.72;2044549;28;19918;-47
2022/06/04 03:56:39;;;;;;;;;;;;;;;23.75;68.55;99519.88;2044207;28;20351;-47
2022/06/04 03:57:41;;;;;;;;;;;;;;;23.75;68.64;99524.63;2043860;28;19957;-48
2022/06/04 03:58:42;;;;;;;;;;;;;;;23.76;68.64;99518.66;2044370;28;19914;-47
2022/06/04 03:59:42;;;;;;;;;;;;;;;23.74;68.50;99523.13;2043979;28;19910;-47
2022/06/04 04:00:45;;;;;;;;;;;;;;;23.74;68.59;99521.09;2044277;28;20704;-47
2022/06/04 04:01:52;;;;;;;;;;;;;;;23.74;68.41;99523.13;2043942;28;19980;-47
2022/06/04 04:02:55;;;;;;;;;;;;;;;23.74;68.53;99520.34;2041444;28;20465;-47
2022/06/04 04:03:56;;;;;;;;;;;;;;;23.74;68.17;99523.84;2044326;28;20625;-46
2022/06/04 04:04:56;;;;;;;;;;;;;;;23.74;68.06;99520.34;2043817;28;19914;-47
2022/06/04 04:05:56;;;;;;;;;;;;;;;23.73;68.35;99524.34;2043654;28;19913;-47
2022/06/04 04:06:57;;;;;;;;;;;;;;;23.73;68.30;99524.34;2044692;28;19917;-47
2022/06/04 04:07:58;;;;;;;;;;;;;;;23.72;68.37;99517.25;2044395;28;19910;-47
2022/06/04 04:08:59;;;;;;;;;;;;;;;23.72;68.00;99522.78;2044685;28;19914;-47
2022/06/04 04:09:59;;;;;;;;;;;;;;;23.72;68.09;99517.25;2043863;28;19996;-46
2022/06/04 04:10:59;;;;;;;;;;;;;;;23.71;67.95;99530.31;2044243;28;19968;-48
2022/06/04 04:12:00;;;;;;;;;;;;;;;23.70;67.70;99520.47;2052396;28;20315;-46
2022/06/04 04:13:00;;;;;;;;;;;;;;;23.71;67.91;99530.31;2048042;28;19944;-47
2022/06/04 04:14:01;;;;;;;;;;;;;;;23.71;68.25;99524.00;2041979;28;20391;-48
2022/06/04 04:15:01;;;;;;;;;;;;;;;23.71;68.13;99533.09;2044801;28;19929;-50
2022/06/04 04:16:02;;;;;;;;;;;;;;;23.70;68.08;99537.06;2044014;28;19952;-46
2022/06/04 04:17:02;;;;;;;;;;;;;;;23.71;68.28;99543.38;2045933;28;20265;-48
2022/06/04 04:18:05;;;;;;;;;;;;;;;23.70;68.19;99541.81;2043643;28;19918;-47
2022/06/04 04:19:05;;;;;;;;;;;;;;;23.70;68.31;99536.28;2043782;28;19964;-48
2022/06/04 04:20:09;;;;;;;;;;;;;;;23.69;68.30;99540.31;2044247;28;20590;-46
2022/06/04 04:21:10;;;;;;;;;;;;;;;23.69;68.13;99543.06;2042310;28;19921;-48
2022/06/04 04:22:11;;;;;;;;;;;;;;;23.68;68.40;99545.06;2043983;28;20390;-49
2022/06/04 04:23:11;;;;;;;;;;;;;;;23.69;68.62;99549.34;2043851;28;19938;-47
2022/06/04 04:24:12;;;;;;;;;;;;;;;23.68;68.67;99544.28;2044865;28;19914;-47
2022/06/04 04:25:13;;;;;;;;;;;;;;;23.68;68.72;99549.81;2044047;28;19910;-48
2022/06/04 04:26:14;;;;;;;;;;;;;;;23.67;68.73;99546.28;2043653;28;20356;-49
2022/06/04 04:27:15;;;;;;;;;;;;;;;23.67;68.75;99548.28;2041941;28;19914;-46
2022/06/04 04:28:15;;;;;;;;;;;;;;;23.67;68.70;99551.03;2044477;28;20175;-47
2022/06/04 04:29:16;;;;;;;;;;;;;;;23.66;68.72;99543.97;2043536;28;19934;-46
2022/06/04 04:30:19;;;;;;;;;;;;;;;23.67;68.75;99553.81;2042970;28;19929;-47
2022/06/04 04:31:20;;;;;;;;;;;;;;;23.65;68.75;99551.50;2044983;28;19934;-49
2022/06/04 04:32:20;;;;;;;;;;;;;;;23.64;68.84;99560.22;2043180;28;19906;-47
2022/06/04 04:33:21;;;;;;;;;;;;;;;23.64;68.50;99551.94;2044619;28;20004;-45
2022/06/04 04:34:21;;;;;;;;;;;;;;;23.65;68.53;99553.47;2044223;28;19945;-51
2022/06/04 04:35:24;;;;;;;;;;;;;;;23.65;68.52;99557.03;2043367;28;19952;-49
2022/06/04 04:36:27;;;;;;;;;;;;;;;23.65;68.36;99545.19;2044540;28;19941;-47
2022/06/04 04:37:28;;;;;;;;;;;;;;;23.65;68.43;99548.72;2041405;28;19910;-46
2022/06/04 04:38:28;;;;;;;;;;;;;;;23.65;68.33;99550.72;2044604;28;19918;-46
2022/06/04 04:39:28;;;;;;;;;;;;;;;23.65;68.33;99556.25;2045637;28;20300;-45
2022/06/04 04:40:29;;;;;;;;;;;;;;;23.64;68.44;99552.72;2042393;28;19957;-47
2022/06/04 04:41:30;;;;;;;;;;;;;;;23.63;68.27;99548.44;2046285;28;19922;-45
2022/06/04 04:42:30;;;;;;;;;;;;;;;23.64;68.30;99563.00;2050373;28;19918;-48
2022/06/04 04:43:30;;;;;;;;;;;;;;;23.64;68.33;99557.47;2050726;28;19914;-47
2022/06/04 04:44:31;;;;;;;;;;;;;;;23.63;68.50;99550.44;2045165;28;19914;-45
2022/06/04 04:45:31;;;;;;;;;;;;;;;23.62;68.60;99548.88;2043620;28;19925;-46
2022/06/04 04:46:32;;;;;;;;;;;;;;;23.63;68.52;99553.97;2043301;28;19918;-48
2022/06/04 04:47:33;;;;;;;;;;;;;;;23.61;68.50;99544.56;2044184;28;19918;-48
2022/06/04 04:48:34;;;;;;;;;;;;;;;23.60;68.55;99557.63;2043480;28;20132;-46
2022/06/04 04:49:34;;;;;;;;;;;;;;;23.60;68.56;99545.78;2044844;28;19921;-46
2022/06/04 04:50:36;;;;;;;;;;;;;;;23.60;68.46;99556.84;2042226;28;19924;-47
2022/06/04 04:51:36;;;;;;;;;;;;;;;23.60;68.50;99554.84;2042387;28;20156;-46
2022/06/04 04:52:37;;;;;;;;;;;;;;;23.60;68.48;99551.31;2045174;28;19953;-47
2022/06/04 04:53:37;;;;;;;;;;;;;;;23.61;68.47;99558.41;2042998;28;20107;-46
2022/06/04 04:54:37;;;;;;;;;;;;;;;23.60;68.57;99554.09;2045178;28;20324;-50
2022/06/04 04:55:38;;;;;;;;;;;;;;;23.60;68.60;99556.84;2042561;28;19914;-45
2022/06/04 04:56:39;;;;;;;;;;;;;;;23.60;68.71;99559.63;2042641;28;19914;-46
2022/06/04 04:57:40;;;;;;;;;;;;;;;23.60;68.59;99554.09;2043140;28;20012;-46
2022/06/04 04:58:40;;;;;;;;;;;;;;;23.59;68.68;99553.31;2044402;28;19918;-49
2022/06/04 04:59:40;;;;;;;;;;;;;;;23.58;68.31;99549.78;2043907;28;20359;-47
2022/06/04 05:00:42;;;;;;;;;;;;;;;23.58;68.54;99545.50;2043618;28;20395;-46
2022/06/04 05:01:42;;;;;;;;;;;;;;;23.58;68.47;99549.03;2042713;28;19918;-46
2022/06/04 05:02:43;;;;;;;;;;;;;;;23.58;68.44;99547.00;2045114;28;20257;-48
2022/06/04 05:03:44;;;;;;;;;;;;;;;23.57;68.50;99541.97;2043150;28;19914;-46
2022/06/04 05:04:44;;;;;;;;;;;;;;;23.58;68.83;99551.03;2041430;28;19917;-47
2022/06/04 05:05:45;;;;;;;;;;;;;;;23.58;69.03;99551.03;2044689;28;20296;-47
2022/06/04 05:06:45;;;;;;;;;;;;;;;23.58;69.02;99551.03;2042798;28;20292;-46
2022/06/04 05:07:45;;;;;;;;;;;;;;;23.56;68.90;99560.53;2043841;28;19917;-47
2022/06/04 05:08:47;;;;;;;;;;;;;;;23.56;68.82;99554.25;2041700;28;19928;-48
2022/06/04 05:09:47;;;;;;;;;;;;;;;23.57;68.70;99555.78;2042843;28;19917;-47
2022/06/04 05:10:47;;;;;;;;;;;;;;;23.56;68.68;99555.00;2046701;28;20586;-48
2022/06/04 05:11:48;;;;;;;;;;;;;;;23.56;68.94;99566.06;2041434;28;19940;-46
2022/06/04 05:12:52;;;;;;;6.67;2.90;;;;;;;23.56;68.87;99554.25;2044156;28;19910;-48
2022/06/04 05:13:53;;;;;;;;;;;;;;;23.56;68.71;99555.00;2044047;28;20312;-46
2022/06/04 05:14:53;;;;;;;;;;;;;;;23.56;68.73;99557.78;2042782;28;20167;-46
2022/06/04 05:15:53;;;;;;;;;;;;;;;23.56;68.84;99551.47;2042682;28;20300;-46
2022/06/04 05:16:54;;;;;;;;;;;;;;;23.55;68.49;99559.00;2044189;28;20005;-45
2022/06/04 05:17:54;;;;;;;;;;;;;;;23.55;68.50;99556.22;2042873;28;20576;-46
2022/06/04 05:18:55;;;;;;;;;;;;;;;23.55;68.36;99542.41;2044913;28;19914;-47
2022/06/04 05:19:55;;;;;;;;;;;;;;;23.55;68.18;99555.47;2043394;28;19917;-45
2022/06/04 05:21:05;;;;;;;;;;;;;;;23.55;68.27;99558.22;2042731;28;20386;-48
2022/06/04 05:22:06;;;;;;;;;;;;;;;23.55;68.06;99550.69;2041943;28;20478;-48
2022/06/04 05:23:06;;;;;;;;;;;;;;;23.53;68.08;99550.38;2049378;28;20292;-47
2022/06/04 05:24:07;;;;;;;;;;;;;;;23.54;68.21;99551.16;2051298;28;20391;-46
2022/06/04 05:25:08;;;;;;;;;;;;;;;23.53;68.15;99555.91;2039558;28;19914;-48
2022/06/04 05:26:08;;;;;;;;;;;;;;;23.54;68.08;99557.44;2042065;28;19906;-47
2022/06/04 05:27:09;;;;;;;;;;;;;;;23.54;68.18;99546.41;2044965;28;19914;-47
2022/06/04 05:28:09;;;;;;;;;;;;;;;23.53;68.35;99555.91;2042969;28;20167;-47
2022/06/04 05:29:10;;;;;;;;;;;;;;;23.52;68.21;99559.91;2042886;28;19929;-46
2022/06/04 05:30:11;;;;;;;;;;;;;;;23.51;68.00;99550.09;2044573;28;19927;-48
2022/06/04 05:31:12;;;;;;;;;;;;;;;23.50;67.98;99565.13;2042636;28;20289;-47
2022/06/04 05:32:12;;;;;;;;;;;;;;;23.52;67.91;99553.63;2044819;28;19978;-48